sensor_id;sensor_type;location;lat;lon;timestamp;P1;durP1;ratioP1;P2;durP2;ratioP2
34491;SDS011;20737;49.908;8.126;2023-04-19T00:01:23;7.85;;;4.65;;
34491;SDS011;20737;49.908;8.126;2023-04-19T00:03:50;8.80;;;5.15;;
34491;SDS011;20737;49.908;8.126;2023-04-19T00:06:18;8.45;;;5.18;;
34491;SDS011;20737;49.908;8.126;2023-04-19T00:08:45;7.88;;;5.47;;
34491;SDS011;20737;49.908;8.126;2023-04-19T00:11:11;7.80;;;5.20;;
34491;SDS011;20737;49.908;8.126;2023-04-19T00:13:38;10.90;;;5.20;;
34491;SDS011;20737;49.908;8.126;2023-04-19T00:16:05;6.70;;;4.78;;
34491;SDS011;20737;49.908;8.126;2023-04-19T00:18:33;7.75;;;5.28;;
34491;SDS011;20737;49.908;8.126;2023-04-19T00:21:00;7.40;;;4.97;;
34491;SDS011;20737;49.908;8.126;2023-04-19T00:23:28;8.57;;;5.20;;
34491;SDS011;20737;49.908;8.126;2023-04-19T00:25:55;8.55;;;6.10;;
34491;SDS011;20737;49.908;8.126;2023-04-19T00:28:23;8.48;;;5.63;;
34491;SDS011;20737;49.908;8.126;2023-04-19T00:30:50;6.95;;;5.05;;
34491;SDS011;20737;49.908;8.126;2023-04-19T00:33:17;8.73;;;5.53;;
34491;SDS011;20737;49.908;8.126;2023-04-19T00:35:43;9.48;;;5.43;;
34491;SDS011;20737;49.908;8.126;2023-04-19T00:38:10;9.70;;;5.25;;
34491;SDS011;20737;49.908;8.126;2023-04-19T00:40:38;9.10;;;5.63;;
34491;SDS011;20737;49.908;8.126;2023-04-19T00:43:05;8.77;;;5.45;;
34491;SDS011;20737;49.908;8.126;2023-04-19T00:45:31;7.50;;;4.45;;
34491;SDS011;20737;49.908;8.126;2023-04-19T00:48:00;9.07;;;5.07;;
34491;SDS011;20737;49.908;8.126;2023-04-19T00:50:27;7.47;;;4.72;;
34491;SDS011;20737;49.908;8.126;2023-04-19T00:52:54;5.80;;;4.20;;
34491;SDS011;20737;49.908;8.126;2023-04-19T00:55:21;6.10;;;4.20;;
34491;SDS011;20737;49.908;8.126;2023-04-19T00:57:49;6.30;;;4.13;;
34491;SDS011;20737;49.908;8.126;2023-04-19T01:00:16;10.05;;;4.80;;
34491;SDS011;20737;49.908;8.126;2023-04-19T01:02:44;9.38;;;4.93;;
34491;SDS011;20737;49.908;8.126;2023-04-19T01:05:10;6.78;;;4.95;;
34491;SDS011;20737;49.908;8.126;2023-04-19T01:07:37;5.72;;;4.20;;
34491;SDS011;20737;49.908;8.126;2023-04-19T01:10:04;6.20;;;4.45;;
34491;SDS011;20737;49.908;8.126;2023-04-19T01:12:31;5.88;;;4.30;;
34491;SDS011;20737;49.908;8.126;2023-04-19T01:15:00;7.70;;;4.70;;
34491;SDS011;20737;49.908;8.126;2023-04-19T01:17:27;5.28;;;3.78;;
34491;SDS011;20737;49.908;8.126;2023-04-19T01:19:57;7.40;;;4.28;;
34491;SDS011;20737;49.908;8.126;2023-04-19T01:22:26;7.00;;;4.05;;
34491;SDS011;20737;49.908;8.126;2023-04-19T01:24:54;7.45;;;4.93;;
34491;SDS011;20737;49.908;8.126;2023-04-19T01:27:21;7.30;;;4.50;;
34491;SDS011;20737;49.908;8.126;2023-04-19T01:29:47;11.77;;;5.10;;
34491;SDS011;20737;49.908;8.126;2023-04-19T01:32:14;7.35;;;4.90;;
34491;SDS011;20737;49.908;8.126;2023-04-19T01:34:41;7.15;;;4.03;;
34491;SDS011;20737;49.908;8.126;2023-04-19T01:37:08;7.40;;;4.72;;
34491;SDS011;20737;49.908;8.126;2023-04-19T01:39:36;8.35;;;4.85;;
34491;SDS011;20737;49.908;8.126;2023-04-19T01:42:03;7.75;;;4.85;;
34491;SDS011;20737;49.908;8.126;2023-04-19T01:44:29;8.38;;;4.65;;
34491;SDS011;20737;49.908;8.126;2023-04-19T01:46:56;8.13;;;4.80;;
34491;SDS011;20737;49.908;8.126;2023-04-19T01:49:23;5.55;;;4.65;;
34491;SDS011;20737;49.908;8.126;2023-04-19T01:51:50;7.97;;;4.70;;
34491;SDS011;20737;49.908;8.126;2023-04-19T01:54:18;8.40;;;5.38;;
34491;SDS011;20737;49.908;8.126;2023-04-19T01:56:46;7.25;;;4.32;;
34491;SDS011;20737;49.908;8.126;2023-04-19T01:59:12;8.20;;;5.00;;
34491;SDS011;20737;49.908;8.126;2023-04-19T02:01:39;9.75;;;5.88;;
34491;SDS011;20737;49.908;8.126;2023-04-19T02:04:06;8.68;;;5.32;;
34491;SDS011;20737;49.908;8.126;2023-04-19T02:06:32;9.23;;;5.80;;
34491;SDS011;20737;49.908;8.126;2023-04-19T02:08:59;8.15;;;5.53;;
34491;SDS011;20737;49.908;8.126;2023-04-19T02:11:26;7.03;;;4.93;;
34491;SDS011;20737;49.908;8.126;2023-04-19T02:13:54;9.35;;;5.07;;
34491;SDS011;20737;49.908;8.126;2023-04-19T02:16:21;7.95;;;5.35;;
34491;SDS011;20737;49.908;8.126;2023-04-19T02:18:47;9.02;;;5.65;;
34491;SDS011;20737;49.908;8.126;2023-04-19T02:21:14;8.18;;;5.60;;
34491;SDS011;20737;49.908;8.126;2023-04-19T02:23:41;8.63;;;5.57;;
34491;SDS011;20737;49.908;8.126;2023-04-19T02:26:08;9.23;;;5.45;;
34491;SDS011;20737;49.908;8.126;2023-04-19T02:28:35;8.15;;;5.72;;
34491;SDS011;20737;49.908;8.126;2023-04-19T02:31:05;8.70;;;5.82;;
34491;SDS011;20737;49.908;8.126;2023-04-19T02:33:32;8.50;;;5.68;;
34491;SDS011;20737;49.908;8.126;2023-04-19T02:35:59;8.27;;;5.25;;
34491;SDS011;20737;49.908;8.126;2023-04-19T02:38:25;9.63;;;5.90;;
34491;SDS011;20737;49.908;8.126;2023-04-19T02:40:52;9.10;;;5.68;;
34491;SDS011;20737;49.908;8.126;2023-04-19T02:43:19;8.68;;;5.53;;
34491;SDS011;20737;49.908;8.126;2023-04-19T02:45:46;10.95;;;6.15;;
34491;SDS011;20737;49.908;8.126;2023-04-19T02:48:14;12.98;;;6.18;;
34491;SDS011;20737;49.908;8.126;2023-04-19T02:50:40;8.52;;;5.80;;
34491;SDS011;20737;49.908;8.126;2023-04-19T02:53:07;10.98;;;6.07;;
34491;SDS011;20737;49.908;8.126;2023-04-19T02:55:34;11.48;;;6.70;;
34491;SDS011;20737;49.908;8.126;2023-04-19T02:58:01;11.13;;;6.32;;
34491;SDS011;20737;49.908;8.126;2023-04-19T03:00:27;10.77;;;6.65;;
34491;SDS011;20737;49.908;8.126;2023-04-19T03:02:55;9.98;;;6.18;;
34491;SDS011;20737;49.908;8.126;2023-04-19T03:05:23;11.23;;;7.03;;
34491;SDS011;20737;49.908;8.126;2023-04-19T03:07:53;9.82;;;5.70;;
34491;SDS011;20737;49.908;8.126;2023-04-19T03:10:20;10.57;;;6.47;;
34491;SDS011;20737;49.908;8.126;2023-04-19T03:12:46;11.88;;;6.53;;
34491;SDS011;20737;49.908;8.126;2023-04-19T03:15:13;12.90;;;6.65;;
34491;SDS011;20737;49.908;8.126;2023-04-19T03:17:40;9.20;;;5.70;;
34491;SDS011;20737;49.908;8.126;2023-04-19T03:20:09;11.55;;;6.72;;
34491;SDS011;20737;49.908;8.126;2023-04-19T03:22:38;10.55;;;6.53;;
34491;SDS011;20737;49.908;8.126;2023-04-19T03:25:05;11.80;;;6.07;;
34491;SDS011;20737;49.908;8.126;2023-04-19T03:30:06;9.75;;;5.80;;
34491;SDS011;20737;49.908;8.126;2023-04-19T03:32:33;10.02;;;6.13;;
34491;SDS011;20737;49.908;8.126;2023-04-19T03:35:00;9.18;;;5.95;;
34491;SDS011;20737;49.908;8.126;2023-04-19T03:37:26;8.73;;;5.97;;
34491;SDS011;20737;49.908;8.126;2023-04-19T03:39:55;11.82;;;6.00;;
34491;SDS011;20737;49.908;8.126;2023-04-19T03:42:21;11.68;;;6.43;;
34491;SDS011;20737;49.908;8.126;2023-04-19T03:44:48;10.73;;;6.68;;
34491;SDS011;20737;49.908;8.126;2023-04-19T03:47:15;13.10;;;7.43;;
34491;SDS011;20737;49.908;8.126;2023-04-19T03:49:41;10.85;;;7.07;;
34491;SDS011;20737;49.908;8.126;2023-04-19T03:52:08;12.13;;;6.80;;
34491;SDS011;20737;49.908;8.126;2023-04-19T03:54:35;11.50;;;6.88;;
34491;SDS011;20737;49.908;8.126;2023-04-19T03:57:03;12.15;;;6.75;;
34491;SDS011;20737;49.908;8.126;2023-04-19T03:59:30;11.68;;;6.30;;
34491;SDS011;20737;49.908;8.126;2023-04-19T04:01:56;14.13;;;7.00;;
34491;SDS011;20737;49.908;8.126;2023-04-19T04:04:23;11.55;;;6.95;;
34491;SDS011;20737;49.908;8.126;2023-04-19T04:06:52;11.95;;;6.93;;
34491;SDS011;20737;49.908;8.126;2023-04-19T04:09:18;11.85;;;7.28;;
34491;SDS011;20737;49.908;8.126;2023-04-19T04:11:45;10.98;;;6.85;;
34491;SDS011;20737;49.908;8.126;2023-04-19T04:14:13;12.35;;;7.60;;
34491;SDS011;20737;49.908;8.126;2023-04-19T04:16:43;10.88;;;7.13;;
34491;SDS011;20737;49.908;8.126;2023-04-19T04:19:11;10.43;;;6.88;;
34491;SDS011;20737;49.908;8.126;2023-04-19T04:21:38;10.25;;;6.10;;
34491;SDS011;20737;49.908;8.126;2023-04-19T04:24:05;10.38;;;6.28;;
34491;SDS011;20737;49.908;8.126;2023-04-19T04:26:33;13.20;;;7.22;;
34491;SDS011;20737;49.908;8.126;2023-04-19T04:29:03;10.98;;;6.97;;
34491;SDS011;20737;49.908;8.126;2023-04-19T04:31:31;12.30;;;7.18;;
34491;SDS011;20737;49.908;8.126;2023-04-19T04:34:00;12.18;;;6.10;;
34491;SDS011;20737;49.908;8.126;2023-04-19T04:36:27;10.75;;;6.53;;
34491;SDS011;20737;49.908;8.126;2023-04-19T04:38:55;9.77;;;6.47;;
34491;SDS011;20737;49.908;8.126;2023-04-19T04:41:22;14.10;;;7.43;;
34491;SDS011;20737;49.908;8.126;2023-04-19T04:43:49;10.35;;;6.90;;
34491;SDS011;20737;49.908;8.126;2023-04-19T04:46:17;10.98;;;6.88;;
34491;SDS011;20737;49.908;8.126;2023-04-19T04:48:45;11.35;;;6.97;;
34491;SDS011;20737;49.908;8.126;2023-04-19T04:51:12;9.73;;;6.20;;
34491;SDS011;20737;49.908;8.126;2023-04-19T04:53:38;10.50;;;6.53;;
34491;SDS011;20737;49.908;8.126;2023-04-19T04:56:05;11.23;;;6.50;;
34491;SDS011;20737;49.908;8.126;2023-04-19T04:58:33;10.98;;;6.75;;
34491;SDS011;20737;49.908;8.126;2023-04-19T05:01:00;11.00;;;6.35;;
34491;SDS011;20737;49.908;8.126;2023-04-19T05:03:27;10.95;;;6.40;;
34491;SDS011;20737;49.908;8.126;2023-04-19T05:05:55;8.77;;;5.82;;
34491;SDS011;20737;49.908;8.126;2023-04-19T05:08:25;11.57;;;6.32;;
34491;SDS011;20737;49.908;8.126;2023-04-19T05:10:58;8.40;;;6.18;;
34491;SDS011;20737;49.908;8.126;2023-04-19T05:13:26;10.20;;;5.93;;
34491;SDS011;20737;49.908;8.126;2023-04-19T05:15:56;12.07;;;6.57;;
34491;SDS011;20737;49.908;8.126;2023-04-19T05:18:22;9.70;;;6.30;;
34491;SDS011;20737;49.908;8.126;2023-04-19T05:20:56;9.68;;;6.63;;
34491;SDS011;20737;49.908;8.126;2023-04-19T05:23:23;12.93;;;6.80;;
34491;SDS011;20737;49.908;8.126;2023-04-19T05:25:50;10.55;;;7.57;;
34491;SDS011;20737;49.908;8.126;2023-04-19T05:28:17;10.85;;;7.07;;
34491;SDS011;20737;49.908;8.126;2023-04-19T05:30:43;9.38;;;6.90;;
34491;SDS011;20737;49.908;8.126;2023-04-19T05:33:10;14.50;;;7.70;;
34491;SDS011;20737;49.908;8.126;2023-04-19T05:35:37;12.52;;;7.03;;
34491;SDS011;20737;49.908;8.126;2023-04-19T05:38:06;11.57;;;7.35;;
34491;SDS011;20737;49.908;8.126;2023-04-19T05:40:33;13.65;;;7.07;;
34491;SDS011;20737;49.908;8.126;2023-04-19T05:43:00;12.52;;;8.05;;
34491;SDS011;20737;49.908;8.126;2023-04-19T05:45:27;10.30;;;6.68;;
34491;SDS011;20737;49.908;8.126;2023-04-19T05:47:56;11.65;;;7.00;;
34491;SDS011;20737;49.908;8.126;2023-04-19T05:50:22;12.88;;;7.78;;
34491;SDS011;20737;49.908;8.126;2023-04-19T05:52:49;14.75;;;8.10;;
34491;SDS011;20737;49.908;8.126;2023-04-19T05:55:17;12.27;;;8.48;;
34491;SDS011;20737;49.908;8.126;2023-04-19T05:57:44;13.75;;;8.43;;
34491;SDS011;20737;49.908;8.126;2023-04-19T06:00:11;12.38;;;8.35;;
34491;SDS011;20737;49.908;8.126;2023-04-19T06:02:38;16.50;;;9.10;;
34491;SDS011;20737;49.908;8.126;2023-04-19T06:05:05;13.15;;;8.35;;
34491;SDS011;20737;49.908;8.126;2023-04-19T06:07:35;12.75;;;7.13;;
34491;SDS011;20737;49.908;8.126;2023-04-19T06:10:01;13.93;;;8.20;;
34491;SDS011;20737;49.908;8.126;2023-04-19T06:12:30;11.60;;;7.72;;
34491;SDS011;20737;49.908;8.126;2023-04-19T06:14:57;14.15;;;8.43;;
34491;SDS011;20737;49.908;8.126;2023-04-19T06:17:25;12.88;;;7.80;;
34491;SDS011;20737;49.908;8.126;2023-04-19T06:19:55;11.45;;;7.53;;
34491;SDS011;20737;49.908;8.126;2023-04-19T06:22:22;14.38;;;7.32;;
34491;SDS011;20737;49.908;8.126;2023-04-19T06:24:49;12.35;;;7.95;;
34491;SDS011;20737;49.908;8.126;2023-04-19T06:27:15;13.40;;;8.25;;
34491;SDS011;20737;49.908;8.126;2023-04-19T06:29:43;11.23;;;7.53;;
34491;SDS011;20737;49.908;8.126;2023-04-19T06:32:10;10.80;;;7.20;;
34491;SDS011;20737;49.908;8.126;2023-04-19T06:34:37;11.05;;;8.05;;
34491;SDS011;20737;49.908;8.126;2023-04-19T06:37:04;11.20;;;7.60;;
34491;SDS011;20737;49.908;8.126;2023-04-19T06:39:30;11.02;;;6.95;;
34491;SDS011;20737;49.908;8.126;2023-04-19T06:41:57;11.98;;;7.80;;
34491;SDS011;20737;49.908;8.126;2023-04-19T06:44:24;13.15;;;6.97;;
34491;SDS011;20737;49.908;8.126;2023-04-19T06:46:52;12.25;;;7.22;;
34491;SDS011;20737;49.908;8.126;2023-04-19T06:49:19;10.77;;;6.78;;
34491;SDS011;20737;49.908;8.126;2023-04-19T06:51:46;15.90;;;8.60;;
34491;SDS011;20737;49.908;8.126;2023-04-19T06:54:13;10.57;;;7.10;;
34491;SDS011;20737;49.908;8.126;2023-04-19T06:56:41;12.30;;;8.43;;
34491;SDS011;20737;49.908;8.126;2023-04-19T06:59:09;12.07;;;7.47;;
34491;SDS011;20737;49.908;8.126;2023-04-19T07:01:37;11.98;;;7.10;;
34491;SDS011;20737;49.908;8.126;2023-04-19T07:04:06;11.45;;;7.55;;
34491;SDS011;20737;49.908;8.126;2023-04-19T07:06:33;9.90;;;7.03;;
34491;SDS011;20737;49.908;8.126;2023-04-19T07:09:00;13.50;;;8.02;;
34491;SDS011;20737;49.908;8.126;2023-04-19T07:11:27;11.63;;;6.70;;
34491;SDS011;20737;49.908;8.126;2023-04-19T07:13:54;9.30;;;6.35;;
34491;SDS011;20737;49.908;8.126;2023-04-19T07:16:21;14.63;;;7.88;;
34491;SDS011;20737;49.908;8.126;2023-04-19T07:18:48;11.90;;;6.65;;
34491;SDS011;20737;49.908;8.126;2023-04-19T07:21:16;10.02;;;6.78;;
34491;SDS011;20737;49.908;8.126;2023-04-19T07:23:43;12.63;;;7.47;;
34491;SDS011;20737;49.908;8.126;2023-04-19T07:26:09;10.88;;;6.30;;
34491;SDS011;20737;49.908;8.126;2023-04-19T07:28:38;10.32;;;6.90;;
34491;SDS011;20737;49.908;8.126;2023-04-19T07:31:04;11.50;;;7.13;;
34491;SDS011;20737;49.908;8.126;2023-04-19T07:33:31;13.27;;;7.85;;
34491;SDS011;20737;49.908;8.126;2023-04-19T07:35:59;10.43;;;6.78;;
34491;SDS011;20737;49.908;8.126;2023-04-19T07:38:27;11.65;;;6.60;;
34491;SDS011;20737;49.908;8.126;2023-04-19T07:40:54;13.38;;;6.57;;
34491;SDS011;20737;49.908;8.126;2023-04-19T07:43:21;8.13;;;5.30;;
34491;SDS011;20737;49.908;8.126;2023-04-19T07:45:47;9.10;;;5.93;;
34491;SDS011;20737;49.908;8.126;2023-04-19T07:48:14;8.70;;;6.25;;
34491;SDS011;20737;49.908;8.126;2023-04-19T07:50:41;9.20;;;5.65;;
34491;SDS011;20737;49.908;8.126;2023-04-19T07:53:07;9.38;;;5.70;;
34491;SDS011;20737;49.908;8.126;2023-04-19T07:55:36;8.50;;;5.95;;
34491;SDS011;20737;49.908;8.126;2023-04-19T07:58:02;6.97;;;5.00;;
34491;SDS011;20737;49.908;8.126;2023-04-19T08:00:31;7.22;;;5.43;;
34491;SDS011;20737;49.908;8.126;2023-04-19T08:03:00;8.27;;;4.75;;
34491;SDS011;20737;49.908;8.126;2023-04-19T08:05:27;8.65;;;5.25;;
34491;SDS011;20737;49.908;8.126;2023-04-19T08:07:55;9.05;;;5.10;;
34491;SDS011;20737;49.908;8.126;2023-04-19T08:10:21;8.90;;;5.38;;
34491;SDS011;20737;49.908;8.126;2023-04-19T08:12:49;8.32;;;4.80;;
34491;SDS011;20737;49.908;8.126;2023-04-19T08:15:16;6.30;;;4.65;;
34491;SDS011;20737;49.908;8.126;2023-04-19T08:17:43;8.32;;;5.05;;
34491;SDS011;20737;49.908;8.126;2023-04-19T08:20:10;6.93;;;4.90;;
34491;SDS011;20737;49.908;8.126;2023-04-19T08:22:37;6.75;;;4.30;;
34491;SDS011;20737;49.908;8.126;2023-04-19T08:25:05;8.05;;;4.95;;
34491;SDS011;20737;49.908;8.126;2023-04-19T08:27:33;6.82;;;4.55;;
34491;SDS011;20737;49.908;8.126;2023-04-19T08:30:02;7.68;;;4.60;;
34491;SDS011;20737;49.908;8.126;2023-04-19T08:32:29;8.63;;;4.50;;
34491;SDS011;20737;49.908;8.126;2023-04-19T08:34:56;5.80;;;4.18;;
34491;SDS011;20737;49.908;8.126;2023-04-19T08:37:22;6.10;;;4.25;;
34491;SDS011;20737;49.908;8.126;2023-04-19T08:39:49;5.30;;;4.32;;
34491;SDS011;20737;49.908;8.126;2023-04-19T08:42:16;5.60;;;4.57;;
34491;SDS011;20737;49.908;8.126;2023-04-19T08:44:44;6.95;;;4.35;;
34491;SDS011;20737;49.908;8.126;2023-04-19T08:47:13;5.95;;;3.83;;
34491;SDS011;20737;49.908;8.126;2023-04-19T08:49:40;4.88;;;3.95;;
34491;SDS011;20737;49.908;8.126;2023-04-19T08:52:08;5.93;;;3.83;;
34491;SDS011;20737;49.908;8.126;2023-04-19T08:54:37;5.65;;;4.05;;
34491;SDS011;20737;49.908;8.126;2023-04-19T08:57:05;7.38;;;4.10;;
34491;SDS011;20737;49.908;8.126;2023-04-19T08:59:36;5.75;;;3.92;;
34491;SDS011;20737;49.908;8.126;2023-04-19T09:02:03;5.55;;;4.18;;
34491;SDS011;20737;49.908;8.126;2023-04-19T09:04:31;6.55;;;4.15;;
34491;SDS011;20737;49.908;8.126;2023-04-19T09:06:58;5.53;;;4.35;;
34491;SDS011;20737;49.908;8.126;2023-04-19T09:09:25;5.45;;;3.75;;
34491;SDS011;20737;49.908;8.126;2023-04-19T09:11:53;5.32;;;3.83;;
34491;SDS011;20737;49.908;8.126;2023-04-19T09:14:21;5.10;;;3.70;;
34491;SDS011;20737;49.908;8.126;2023-04-19T09:16:48;6.22;;;3.70;;
34491;SDS011;20737;49.908;8.126;2023-04-19T09:19:16;6.47;;;4.05;;
34491;SDS011;20737;49.908;8.126;2023-04-19T09:24:11;5.88;;;4.10;;
34491;SDS011;20737;49.908;8.126;2023-04-19T09:26:38;5.00;;;3.90;;
34491;SDS011;20737;49.908;8.126;2023-04-19T09:29:10;5.82;;;3.63;;
34491;SDS011;20737;49.908;8.126;2023-04-19T09:31:42;4.55;;;3.92;;
34491;SDS011;20737;49.908;8.126;2023-04-19T09:34:22;4.28;;;3.65;;
34491;SDS011;20737;49.908;8.126;2023-04-19T09:36:50;8.05;;;3.42;;
34491;SDS011;20737;49.908;8.126;2023-04-19T09:39:26;5.05;;;3.88;;
34491;SDS011;20737;49.908;8.126;2023-04-19T09:41:54;5.03;;;3.42;;
34491;SDS011;20737;49.908;8.126;2023-04-19T09:44:20;6.13;;;4.03;;
34491;SDS011;20737;49.908;8.126;2023-04-19T09:46:47;4.88;;;3.63;;
34491;SDS011;20737;49.908;8.126;2023-04-19T09:49:17;3.95;;;3.20;;
34491;SDS011;20737;49.908;8.126;2023-04-19T09:51:45;5.55;;;3.70;;
34491;SDS011;20737;49.908;8.126;2023-04-19T09:54:14;4.32;;;3.40;;
34491;SDS011;20737;49.908;8.126;2023-04-19T09:56:42;5.45;;;3.80;;
34491;SDS011;20737;49.908;8.126;2023-04-19T09:59:10;6.10;;;3.67;;
34491;SDS011;20737;49.908;8.126;2023-04-19T10:01:38;6.30;;;3.30;;
34491;SDS011;20737;49.908;8.126;2023-04-19T10:04:14;6.10;;;3.58;;
34491;SDS011;20737;49.908;8.126;2023-04-19T10:06:46;4.30;;;3.30;;
34491;SDS011;20737;49.908;8.126;2023-04-19T10:09:16;6.75;;;4.00;;
34491;SDS011;20737;49.908;8.126;2023-04-19T10:11:46;3.75;;;3.33;;
34491;SDS011;20737;49.908;8.126;2023-04-19T10:14:14;3.50;;;3.20;;
34491;SDS011;20737;49.908;8.126;2023-04-19T10:16:42;5.38;;;3.85;;
34491;SDS011;20737;49.908;8.126;2023-04-19T10:19:09;5.10;;;3.55;;
34491;SDS011;20737;49.908;8.126;2023-04-19T10:21:38;5.75;;;3.60;;
34491;SDS011;20737;49.908;8.126;2023-04-19T10:24:07;4.63;;;3.25;;
34491;SDS011;20737;49.908;8.126;2023-04-19T10:29:58;5.15;;;3.13;;
34491;SDS011;20737;49.908;8.126;2023-04-19T10:32:28;4.80;;;3.22;;
34491;SDS011;20737;49.908;8.126;2023-04-19T10:35:00;4.15;;;3.25;;
34491;SDS011;20737;49.908;8.126;2023-04-19T10:37:30;4.95;;;3.30;;
34491;SDS011;20737;49.908;8.126;2023-04-19T10:39:56;4.82;;;3.30;;
34491;SDS011;20737;49.908;8.126;2023-04-19T10:42:25;3.90;;;3.28;;
34491;SDS011;20737;49.908;8.126;2023-04-19T10:45:30;5.78;;;3.35;;
34491;SDS011;20737;49.908;8.126;2023-04-19T10:47:57;5.40;;;3.47;;
34491;SDS011;20737;49.908;8.126;2023-04-19T10:50:24;4.10;;;3.45;;
34491;SDS011;20737;49.908;8.126;2023-04-19T10:52:51;3.75;;;2.92;;
34491;SDS011;20737;49.908;8.126;2023-04-19T10:55:18;4.80;;;3.25;;
34491;SDS011;20737;49.908;8.126;2023-04-19T10:58:02;3.70;;;3.25;;
34491;SDS011;20737;49.908;8.126;2023-04-19T11:00:31;4.20;;;3.50;;
34491;SDS011;20737;49.908;8.126;2023-04-19T11:02:59;4.03;;;3.50;;
34491;SDS011;20737;49.908;8.126;2023-04-19T11:06:16;5.53;;;3.60;;
34491;SDS011;20737;49.908;8.126;2023-04-19T11:08:45;4.28;;;3.38;;
34491;SDS011;20737;49.908;8.126;2023-04-19T11:11:12;4.85;;;4.10;;
34491;SDS011;20737;49.908;8.126;2023-04-19T11:13:41;5.53;;;3.72;;
34491;SDS011;20737;49.908;8.126;2023-04-19T11:16:08;4.32;;;3.33;;
34491;SDS011;20737;49.908;8.126;2023-04-19T11:18:35;5.25;;;3.67;;
34491;SDS011;20737;49.908;8.126;2023-04-19T11:21:02;3.83;;;3.10;;
34491;SDS011;20737;49.908;8.126;2023-04-19T11:23:30;4.38;;;3.35;;
34491;SDS011;20737;49.908;8.126;2023-04-19T11:25:57;4.10;;;3.33;;
34491;SDS011;20737;49.908;8.126;2023-04-19T11:28:24;5.03;;;3.42;;
34491;SDS011;20737;49.908;8.126;2023-04-19T11:30:52;4.95;;;2.80;;
34491;SDS011;20737;49.908;8.126;2023-04-19T11:33:20;6.25;;;3.63;;
34491;SDS011;20737;49.908;8.126;2023-04-19T11:35:49;4.65;;;3.45;;
34491;SDS011;20737;49.908;8.126;2023-04-19T11:38:16;5.47;;;3.60;;
34491;SDS011;20737;49.908;8.126;2023-04-19T11:40:43;4.72;;;3.33;;
34491;SDS011;20737;49.908;8.126;2023-04-19T11:43:10;6.30;;;3.85;;
34491;SDS011;20737;49.908;8.126;2023-04-19T11:45:37;5.28;;;3.55;;
34491;SDS011;20737;49.908;8.126;2023-04-19T11:48:05;3.65;;;2.53;;
34491;SDS011;20737;49.908;8.126;2023-04-19T11:50:38;4.28;;;3.08;;
34491;SDS011;20737;49.908;8.126;2023-04-19T11:53:10;4.00;;;2.72;;
34491;SDS011;20737;49.908;8.126;2023-04-19T11:55:40;5.00;;;3.13;;
34491;SDS011;20737;49.908;8.126;2023-04-19T11:58:24;7.25;;;3.05;;
34491;SDS011;20737;49.908;8.126;2023-04-19T12:00:53;3.53;;;3.05;;
34491;SDS011;20737;49.908;8.126;2023-04-19T12:03:23;3.40;;;2.90;;
34491;SDS011;20737;49.908;8.126;2023-04-19T12:05:51;4.47;;;3.30;;
34491;SDS011;20737;49.908;8.126;2023-04-19T12:08:28;3.55;;;2.83;;
34491;SDS011;20737;49.908;8.126;2023-04-19T12:10:57;5.32;;;3.15;;
34491;SDS011;20737;49.908;8.126;2023-04-19T12:13:24;4.55;;;3.22;;
34491;SDS011;20737;49.908;8.126;2023-04-19T12:15:51;4.25;;;3.70;;
34491;SDS011;20737;49.908;8.126;2023-04-19T12:18:18;3.15;;;2.80;;
34491;SDS011;20737;49.908;8.126;2023-04-19T12:20:47;3.22;;;2.85;;
34491;SDS011;20737;49.908;8.126;2023-04-19T12:23:14;3.20;;;2.80;;
34491;SDS011;20737;49.908;8.126;2023-04-19T12:25:42;5.95;;;3.00;;
34491;SDS011;20737;49.908;8.126;2023-04-19T12:28:10;4.35;;;2.65;;
34491;SDS011;20737;49.908;8.126;2023-04-19T12:30:37;4.22;;;2.53;;
34491;SDS011;20737;49.908;8.126;2023-04-19T12:33:04;5.25;;;2.50;;
34491;SDS011;20737;49.908;8.126;2023-04-19T12:35:32;5.57;;;2.47;;
34491;SDS011;20737;49.908;8.126;2023-04-19T12:38:00;4.07;;;2.30;;
34491;SDS011;20737;49.908;8.126;2023-04-19T12:40:28;4.30;;;2.72;;
34491;SDS011;20737;49.908;8.126;2023-04-19T12:42:55;2.60;;;2.28;;
34491;SDS011;20737;49.908;8.126;2023-04-19T12:45:21;4.72;;;2.65;;
34491;SDS011;20737;49.908;8.126;2023-04-19T12:47:48;2.35;;;2.10;;
34491;SDS011;20737;49.908;8.126;2023-04-19T12:50:15;3.28;;;2.47;;
34491;SDS011;20737;49.908;8.126;2023-04-19T12:52:43;3.67;;;2.38;;
34491;SDS011;20737;49.908;8.126;2023-04-19T12:55:14;5.60;;;2.38;;
34491;SDS011;20737;49.908;8.126;2023-04-19T12:57:41;3.22;;;2.42;;
34491;SDS011;20737;49.908;8.126;2023-04-19T13:00:08;4.10;;;2.25;;
34491;SDS011;20737;49.908;8.126;2023-04-19T13:02:36;3.00;;;2.50;;
34491;SDS011;20737;49.908;8.126;2023-04-19T13:05:03;5.65;;;2.63;;
34491;SDS011;20737;49.908;8.126;2023-04-19T13:07:30;5.05;;;2.88;;
34491;SDS011;20737;49.908;8.126;2023-04-19T13:09:57;2.75;;;2.17;;
34491;SDS011;20737;49.908;8.126;2023-04-19T13:12:26;3.20;;;2.88;;
34491;SDS011;20737;49.908;8.126;2023-04-19T13:14:53;4.07;;;2.70;;
34491;SDS011;20737;49.908;8.126;2023-04-19T13:17:23;4.22;;;2.28;;
34491;SDS011;20737;49.908;8.126;2023-04-19T13:19:49;2.95;;;2.38;;
34491;SDS011;20737;49.908;8.126;2023-04-19T13:22:16;2.53;;;2.33;;
34491;SDS011;20737;49.908;8.126;2023-04-19T13:24:43;2.58;;;2.38;;
34491;SDS011;20737;49.908;8.126;2023-04-19T13:27:13;3.97;;;2.28;;
34491;SDS011;20737;49.908;8.126;2023-04-19T13:29:41;2.50;;;2.30;;
34491;SDS011;20737;49.908;8.126;2023-04-19T13:32:10;4.15;;;1.75;;
34491;SDS011;20737;49.908;8.126;2023-04-19T13:34:37;3.60;;;1.95;;
34491;SDS011;20737;49.908;8.126;2023-04-19T13:37:04;4.35;;;2.10;;
34491;SDS011;20737;49.908;8.126;2023-04-19T13:39:31;2.97;;;2.03;;
34491;SDS011;20737;49.908;8.126;2023-04-19T13:41:58;2.97;;;1.98;;
34491;SDS011;20737;49.908;8.126;2023-04-19T13:44:26;2.72;;;2.13;;
34491;SDS011;20737;49.908;8.126;2023-04-19T13:46:54;3.40;;;1.90;;
34491;SDS011;20737;49.908;8.126;2023-04-19T13:49:21;2.60;;;1.90;;
34491;SDS011;20737;49.908;8.126;2023-04-19T13:51:48;3.15;;;1.85;;
34491;SDS011;20737;49.908;8.126;2023-04-19T13:54:15;4.90;;;2.03;;
34491;SDS011;20737;49.908;8.126;2023-04-19T13:56:42;3.50;;;1.90;;
34491;SDS011;20737;49.908;8.126;2023-04-19T13:59:09;2.05;;;1.45;;
34491;SDS011;20737;49.908;8.126;2023-04-19T14:01:36;1.50;;;1.40;;
34491;SDS011;20737;49.908;8.126;2023-04-19T14:04:05;2.95;;;1.80;;
34491;SDS011;20737;49.908;8.126;2023-04-19T14:06:31;1.77;;;1.35;;
34491;SDS011;20737;49.908;8.126;2023-04-19T14:08:58;2.22;;;1.63;;
34491;SDS011;20737;49.908;8.126;2023-04-19T14:11:25;3.80;;;1.35;;
34491;SDS011;20737;49.908;8.126;2023-04-19T14:13:51;2.83;;;1.30;;
34491;SDS011;20737;49.908;8.126;2023-04-19T14:16:19;5.40;;;1.65;;
34491;SDS011;20737;49.908;8.126;2023-04-19T14:18:48;4.85;;;1.70;;
34491;SDS011;20737;49.908;8.126;2023-04-19T14:21:16;1.38;;;1.25;;
34491;SDS011;20737;49.908;8.126;2023-04-19T14:23:45;3.97;;;1.35;;
34491;SDS011;20737;49.908;8.126;2023-04-19T14:26:12;2.30;;;1.27;;
34491;SDS011;20737;49.908;8.126;2023-04-19T14:28:39;2.10;;;1.52;;
34491;SDS011;20737;49.908;8.126;2023-04-19T14:31:06;1.70;;;1.35;;
34491;SDS011;20737;49.908;8.126;2023-04-19T14:33:33;5.57;;;1.45;;
34491;SDS011;20737;49.908;8.126;2023-04-19T14:36:00;2.10;;;1.52;;
34491;SDS011;20737;49.908;8.126;2023-04-19T14:38:28;3.75;;;1.30;;
34491;SDS011;20737;49.908;8.126;2023-04-19T14:40:55;1.05;;;1.05;;
34491;SDS011;20737;49.908;8.126;2023-04-19T14:43:21;1.38;;;1.27;;
34491;SDS011;20737;49.908;8.126;2023-04-19T14:45:48;2.15;;;0.82;;
34491;SDS011;20737;49.908;8.126;2023-04-19T14:48:15;2.35;;;1.20;;
34491;SDS011;20737;49.908;8.126;2023-04-19T14:50:42;1.63;;;1.05;;
34491;SDS011;20737;49.908;8.126;2023-04-19T14:53:10;1.55;;;1.00;;
34491;SDS011;20737;49.908;8.126;2023-04-19T14:55:39;1.05;;;0.90;;